Time;durP1;ratioP1;P1;durP2;ratioP2;P2;SDS_P1;SDS_P2;PMS_P1;PMS_P2;Temp;Humidity;BMP_temperature;BMP_pressure;BME280_temperature;BME280_humidity;BME280_pressure;Samples;Min_cycle;Max_cycle;Signal;HPM_P1;HPM_P2
2023/11/28 00:01:09;;;;;;;5.27;2.53;;;;;;;;;;5013735;28;20406;-81
2023/11/28 00:03:35;;;;;;;3.43;2.23;;;;;;;;;;5015281;28;20544;-80
2023/11/28 00:06:01;;;;;;;4.63;2.30;;;;;;;;;;5016594;28;20418;-80
2023/11/28 00:08:28;;;;;;;6.10;2.87;;;;;;;;;;5016699;28;20419;-81
2023/11/28 00:10:54;;;;;;;5.07;2.40;;;;;;;;;;5016306;28;20413;-80
2023/11/28 00:13:20;;;;;;;7.90;2.10;;;;;;;;;;5016561;28;20439;-79
2023/11/28 00:15:47;;;;;;;5.87;2.33;;;;;;;;;;5016448;28;20830;-80
2023/11/28 00:18:13;;;;;;;4.13;1.43;;;;;;;;;;5016433;28;20468;-80
2023/11/28 00:20:39;;;;;;;3.50;2.03;;;;;;;;;;5016429;28;20416;-80
2023/11/28 00:23:05;;;;;;;7.50;2.03;;;;;;;;;;5016359;28;20964;-82
2023/11/28 00:25:31;;;;;;;10.90;2.97;;;;;;;;;;5015915;28;20418;-81
2023/11/28 00:27:56;;;;;;;7.13;2.80;;;;;;;;;;5016187;28;20412;-82
2023/11/28 00:30:23;;;;;;;6.97;3.23;;;;;;;;;;5016060;28;20465;-82
2023/11/28 00:32:48;;;;;;;4.10;3.23;;;;;;;;;;5016140;28;20444;-80
2023/11/28 00:35:15;;;;;;;7.60;2.80;;;;;;;;;;5016137;28;20465;-80
2023/11/28 00:37:40;;;;;;;4.00;2.10;;;;;;;;;;5016022;28;20493;-80
2023/11/28 00:40:11;;;;;;;6.03;1.50;;;;;;;;;;5015787;28;20530;-80
2023/11/28 00:42:37;;;;;;;7.40;2.50;;;;;;;;;;5016033;28;20406;-81
2023/11/28 00:45:04;;;;;;;5.40;2.10;;;;;;;;;;5015908;28;20426;-80
2023/11/28 00:47:30;;;;;;;5.10;1.50;;;;;;;;;;5015901;28;20417;-80
2023/11/28 00:49:56;;;;;;;7.43;2.60;;;;;;;;;;5016190;28;20418;-80
2023/11/28 00:52:22;;;;;;;6.70;3.00;;;;;;;;;;5016197;28;20735;-80
2023/11/28 00:54:48;;;;;;;5.13;2.40;;;;;;;;;;5015487;28;20414;-80
2023/11/28 00:57:14;;;;;;;10.67;3.80;;;;;;;;;;5015750;28;20416;-80
2023/11/28 00:59:41;;;;;;;3.20;1.80;;;;;;;;;;5015671;28;20418;-81
2023/11/28 01:02:08;;;;;;;8.27;2.60;;;;;;;;;;4985774;28;20907;-81
2023/11/28 01:04:34;;;;;;;5.20;1.77;;;;;;;;;;5035375;28;20472;-80
2023/11/28 01:07:00;;;;;;;3.90;2.13;;;;;;;;;;5035292;28;20903;-80
2023/11/28 01:09:26;;;;;;;7.33;2.63;;;;;;;;;;5034938;28;20413;-80
2023/11/28 01:11:52;;;;;;;4.13;2.77;;;;;;;;;;5035145;28;20405;-80
2023/11/28 01:14:18;;;;;;;3.90;2.40;;;;;;;;;;5049582;28;20472;-80
2023/11/28 01:16:45;;;;;;;5.00;1.73;;;;;;;;;;5035066;28;20413;-80
2023/11/28 01:19:11;;;;;;;5.00;2.40;;;;;;;;;;5035118;28;20484;-80
2023/11/28 01:21:37;;;;;;;3.57;1.83;;;;;;;;;;5034973;28;20440;-80
2023/11/28 01:24:03;;;;;;;5.30;1.87;;;;;;;;;;5034550;28;20547;-80
2023/11/28 01:26:29;;;;;;;8.93;2.83;;;;;;;;;;5050117;28;20419;-80
2023/11/28 01:28:55;;;;;;;2.40;1.90;;;;;;;;;;5034865;28;20772;-80
2023/11/28 01:31:24;;;;;;;5.80;2.33;;;;;;;;;;5034689;28;20457;-80
2023/11/28 01:33:50;;;;;;;2.33;1.63;;;;;;;;;;5035137;28;20496;-80
2023/11/28 01:36:16;;;;;;;3.53;1.63;;;;;;;;;;5050107;28;20869;-80
2023/11/28 01:38:43;;;;;;;3.27;2.10;;;;;;;;;;5034704;28;20555;-80
2023/11/28 01:41:09;;;;;;;2.50;1.73;;;;;;;;;;5034300;28;20413;-80
2023/11/28 01:43:34;;;;;;;2.30;1.80;;;;;;;;;;5034477;28;20473;-81
2023/11/28 01:46:04;;;;;;;2.63;1.50;;;;;;;;;;5049958;28;20774;-80
2023/11/28 01:48:30;;;;;;;2.10;1.63;;;;;;;;;;5034554;28;21129;-81
2023/11/28 01:50:56;;;;;;;3.03;1.23;;;;;;;;;;5034468;28;20441;-80
2023/11/28 01:53:22;;;;;;;3.10;1.33;;;;;;;;;;5034377;28;20478;-80
2023/11/28 01:55:49;;;;;;;2.00;1.33;;;;;;;;;;5033988;28;20902;-79
2023/11/28 01:58:15;;;;;;;3.13;1.60;;;;;;;;;;5034395;28;20417;-79
2023/11/28 02:00:41;;;;;;;5.60;2.70;;;;;;;;;;5034326;28;20445;-80
2023/11/28 02:03:10;;;;;;;2.57;1.37;;;;;;;;;;5034188;28;20471;-81
2023/11/28 02:05:36;;;;;;;1.93;1.43;;;;;;;;;;5049452;28;20421;-79
2023/11/28 02:08:02;;;;;;;2.97;1.30;;;;;;;;;;5034257;28;20420;-79
2023/11/28 02:10:28;;;;;;;3.60;1.90;;;;;;;;;;5033777;28;20417;-81
2023/11/28 02:12:54;;;;;;;3.47;1.70;;;;;;;;;;5034098;28;20445;-79
2023/11/28 02:15:39;;;;;;;2.53;1.10;;;;;;;;;;5033986;28;20934;-79
2023/11/28 02:18:05;;;;;;;2.90;1.40;;;;;;;;;;5033952;28;20425;-81
2023/11/28 02:20:31;;;;;;;4.93;1.50;;;;;;;;;;4982234;28;21008;-80
2023/11/28 02:22:57;;;;;;;2.03;1.77;;;;;;;;;;5014354;28;20479;-80
2023/11/28 02:25:25;;;;;;;3.03;1.10;;;;;;;;;;5013756;28;20749;-79
2023/11/28 02:27:50;;;;;;;2.83;1.53;;;;;;;;;;5013981;28;20458;-81
2023/11/28 02:30:16;;;;;;;2.63;1.40;;;;;;;;;;5013834;28;20511;-79
2023/11/28 02:32:42;;;;;;;3.13;1.63;;;;;;;;;;5014052;28;20855;-80
2023/11/28 02:35:08;;;;;;;4.90;2.00;;;;;;;;;;5013870;28;20437;-80
2023/11/28 02:37:34;;;;;;;2.20;0.93;;;;;;;;;;5013846;28;20418;-79
2023/11/28 02:40:00;;;;;;;2.27;1.50;;;;;;;;;;5013502;28;20902;-80
2023/11/28 02:42:26;;;;;;;3.97;1.60;;;;;;;;;;5012497;28;20437;-80
2023/11/28 02:44:52;;;;;;;1.90;1.77;;;;;;;;;;5013728;28;20426;-80
2023/11/28 02:47:18;;;;;;;3.07;2.10;;;;;;;;;;5013732;28;20410;-81
2023/11/28 02:49:44;;;;;;;4.43;1.90;;;;;;;;;;5013558;28;20418;-80
2023/11/28 02:52:09;;;;;;;2.30;1.80;;;;;;;;;;5013632;28;20410;-81
2023/11/28 02:54:35;;;;;;;3.93;1.83;;;;;;;;;;5013274;28;20406;-80
2023/11/28 02:57:02;;;;;;;2.00;1.60;;;;;;;;;;5013516;28;20417;-80
2023/11/28 02:59:27;;;;;;;3.03;1.70;;;;;;;;;;5013703;28;20447;-80
2023/11/28 03:01:54;;;;;;;4.30;1.90;;;;;;;;;;5013470;28;20421;-80
2023/11/28 03:04:21;;;;;;;2.80;2.07;;;;;;;;;;5013428;28;20477;-79
2023/11/28 03:06:48;;;;;;;1.97;1.77;;;;;;;;;;5013421;28;21009;-79
2023/11/28 03:09:14;;;;;;;3.33;1.73;;;;;;;;;;5013415;28;20410;-78
2023/11/28 03:11:39;;;;;;;3.13;1.70;;;;;;;;;;5013392;28;20918;-80
2023/11/28 03:14:06;;;;;;;3.00;1.67;;;;;;;;;;5013378;28;20771;-80
2023/11/28 03:16:32;;;;;;;2.57;1.73;;;;;;;;;;5012029;28;20425;-80
2023/11/28 03:18:57;;;;;;;2.00;1.50;;;;;;;;;;5013285;28;20428;-80
2023/11/28 03:21:23;;;;;;;2.00;1.70;;;;;;;;;;5013198;28;20419;-80
2023/11/28 03:23:50;;;;;;;2.50;0.93;;;;;;;;;;5012870;28;20476;-81
2023/11/28 03:26:16;;;;;;;2.60;1.60;;;;;;;;;;5013347;28;20413;-81
2023/11/28 03:28:42;;;;;;;3.67;1.97;;;;;;;;;;5013219;28;20770;-80
2023/11/28 03:31:08;;;;;;;3.03;1.50;;;;;;;;;;5013011;28;20520;-81
2023/11/28 03:33:34;;;;;;;1.73;1.17;;;;;;;;;;5013131;28;20469;-80
2023/11/28 03:36:01;;;;;;;2.67;1.57;;;;;;;;;;5013836;28;20417;-80
2023/11/28 03:38:27;;;;;;;1.47;1.30;;;;;;;;;;5016019;28;20432;-80
2023/11/28 03:40:53;;;;;;;2.47;1.00;;;;;;;;;;5015497;28;20504;-81
2023/11/28 03:43:19;;;;;;;2.07;1.13;;;;;;;;;;5016904;28;20988;-79
2023/11/28 03:45:45;;;;;;;2.00;1.70;;;;;;;;;;5017043;28;20550;-80
2023/11/28 03:48:11;;;;;;;1.63;0.80;;;;;;;;;;5016955;28;20748;-80
2023/11/28 03:50:37;;;;;;;1.83;1.63;;;;;;;;;;5015660;28;20416;-81
2023/11/28 03:53:03;;;;;;;2.00;1.37;;;;;;;;;;5016979;28;20449;-80
2023/11/28 03:55:29;;;;;;;1.33;0.80;;;;;;;;;;5016564;28;20536;-80
2023/11/28 03:57:55;;;;;;;1.53;1.07;;;;;;;;;;5016681;28;20961;-80
2023/11/28 04:00:21;;;;;;;2.20;1.10;;;;;;;;;;5016725;28;20415;-82
2023/11/28 04:02:47;;;;;;;5.60;1.20;;;;;;;;;;5015361;28;20835;-80
2023/11/28 04:05:14;;;;;;;0.80;0.70;;;;;;;;;;5016695;28;20429;-82
2023/11/28 04:07:40;;;;;;;1.33;0.50;;;;;;;;;;5017114;28;20805;-80
2023/11/28 04:10:06;;;;;;;1.20;1.00;;;;;;;;;;5016318;28;20409;-79
2023/11/28 04:12:32;;;;;;;1.73;0.83;;;;;;;;;;5016506;28;20421;-80
2023/11/28 04:14:58;;;;;;;1.40;0.80;;;;;;;;;;5022526;28;20922;-80
2023/11/28 04:17:24;;;;;;;2.43;1.30;;;;;;;;;;5036565;28;20443;-80
2023/11/28 04:19:50;;;;;;;1.43;0.70;;;;;;;;;;5036208;28;20408;-80
2023/11/28 04:22:16;;;;;;;1.30;0.90;;;;;;;;;;5036119;28;20408;-80
2023/11/28 04:24:42;;;;;;;2.37;1.70;;;;;;;;;;5035686;28;20936;-79
2023/11/28 04:27:08;;;;;;;1.50;0.87;;;;;;;;;;5036106;28;20455;-79
2023/11/28 04:29:34;;;;;;;1.67;1.43;;;;;;;;;;5036515;28;20424;-79
2023/11/28 04:32:01;;;;;;;2.40;1.80;;;;;;;;;;5035822;28;20458;-80
2023/11/28 04:34:27;;;;;;;2.43;1.83;;;;;;;;;;5036006;28;20408;-80
2023/11/28 04:36:53;;;;;;;2.40;1.93;;;;;;;;;;5035943;28;20415;-79
2023/11/28 04:39:19;;;;;;;2.57;1.30;;;;;;;;;;5035511;28;20415;-80
2023/11/28 04:41:45;;;;;;;3.90;2.40;;;;;;;;;;5035826;28;20808;-79
2023/11/28 04:44:11;;;;;;;3.13;1.83;;;;;;;;;;5035536;28;20567;-80
2023/11/28 04:46:37;;;;;;;2.93;2.47;;;;;;;;;;5051027;28;20409;-80
2023/11/28 04:49:02;;;;;;;2.97;1.90;;;;;;;;;;5049843;28;20428;-80
2023/11/28 04:51:28;;;;;;;4.97;2.30;;;;;;;;;;5050875;28;20440;-79
2023/11/28 04:53:54;;;;;;;4.00;2.90;;;;;;;;;;5035271;28;20409;-80
2023/11/28 04:56:20;;;;;;;4.97;2.03;;;;;;;;;;5035857;28;20443;-79
2023/11/28 04:58:46;;;;;;;4.87;2.40;;;;;;;;;;5050785;28;20420;-80
2023/11/28 05:01:12;;;;;;;3.00;2.00;;;;;;;;;;5050643;28;20885;-81
2023/11/28 05:03:38;;;;;;;3.10;2.57;;;;;;;;;;5035330;28;20464;-79
2023/11/28 05:06:04;;;;;;;3.03;2.10;;;;;;;;;;5035350;28;20420;-79
2023/11/28 05:08:32;;;;;;;2.40;1.80;;;;;;;;;;5034804;28;20428;-79
2023/11/28 05:10:58;;;;;;;3.10;2.40;;;;;;;;;;5035272;28;20443;-79
2023/11/28 05:13:24;;;;;;;3.43;2.37;;;;;;;;;;5050376;28;20412;-79
2023/11/28 05:15:50;;;;;;;2.77;1.70;;;;;;;;;;5035139;28;20401;-79
2023/11/28 05:18:16;;;;;;;3.57;2.27;;;;;;;;;;5050390;28;20932;-80
2023/11/28 05:20:42;;;;;;;2.80;1.93;;;;;;;;;;5035028;28;20471;-79
2023/11/28 05:23:08;;;;;;;3.03;2.20;;;;;;;;;;5034920;28;20478;-79
2023/11/28 05:25:34;;;;;;;3.60;2.27;;;;;;;;;;5034553;28;20416;-80
2023/11/28 05:28:00;;;;;;;3.33;2.20;;;;;;;;;;5034931;28;20492;-79
2023/11/28 05:30:26;;;;;;;3.07;1.47;;;;;;;;;;5034619;28;20455;-79
2023/11/28 05:32:52;;;;;;;2.77;1.83;;;;;;;;;;5050185;28;20435;-80
2023/11/28 05:35:18;;;;;;;3.30;2.37;;;;;;;;;;5034856;28;20412;-79
2023/11/28 05:37:44;;;;;;;2.50;1.80;;;;;;;;;;5050410;28;20452;-79
2023/11/28 05:40:10;;;;;;;2.77;1.80;;;;;;;;;;5034129;28;20413;-79
2023/11/28 05:42:36;;;;;;;2.90;1.50;;;;;;;;;;5050254;28;20428;-79
2023/11/28 05:45:02;;;;;;;2.77;1.70;;;;;;;;;;5034527;28;20422;-80
2023/11/28 05:47:28;;;;;;;3.43;2.07;;;;;;;;;;5050070;28;20401;-79
2023/11/28 05:49:54;;;;;;;2.60;1.97;;;;;;;;;;5049910;28;20413;-80
2023/11/28 05:52:21;;;;;;;2.40;2.20;;;;;;;;;;5034423;28;20423;-79
2023/11/28 05:54:47;;;;;;;3.00;2.00;;;;;;;;;;5034133;28;20428;-80
2023/11/28 05:57:13;;;;;;;5.20;2.80;;;;;;;;;;5034435;28;20411;-79
2023/11/28 05:59:39;;;;;;;3.60;2.80;;;;;;;;;;5033967;28;20767;-79
2023/11/28 06:02:05;;;;;;;5.17;3.30;;;;;;;;;;5034351;28;20414;-79
2023/11/28 06:04:31;;;;;;;3.00;2.50;;;;;;;;;;5049482;28;20494;-80
2023/11/28 06:06:57;;;;;;;4.10;3.13;;;;;;;;;;5032929;28;20455;-79
2023/11/28 06:09:24;;;;;;;2.90;2.10;;;;;;;;;;5033808;28;20821;-79
2023/11/28 06:11:51;;;;;;;3.63;2.60;;;;;;;;;;5034108;28;20416;-79
2023/11/28 06:14:17;;;;;;;6.80;4.07;;;;;;;;;;5034063;28;20409;-79
2023/11/28 06:16:43;;;;;;;2.80;1.87;;;;;;;;;;5033985;28;20936;-78
2023/11/28 06:19:08;;;;;;;3.30;2.73;;;;;;;;;;5033925;28;20441;-79
2023/11/28 06:21:35;;;;;;;5.03;2.80;;;;;;;;;;5049261;28;20932;-80
2023/11/28 06:24:04;;;;;;;3.00;1.97;;;;;;;;;;5033323;28;20516;-79
2023/11/28 06:26:29;;;;;;;4.40;2.53;;;;;;;;;;5033725;28;20935;-80
2023/11/28 06:28:55;;;;;;;6.47;3.13;;;;;;;;;;5033706;28;20428;-79
2023/11/28 06:31:21;;;;;;;3.47;2.73;;;;;;;;;;5033588;28;20461;-80
2023/11/28 06:33:48;;;;;;;3.43;2.93;;;;;;;;;;5033662;28;20483;-79
2023/11/28 06:36:14;;;;;;;4.20;2.90;;;;;;;;;;5033672;28;20420;-80
2023/11/28 06:38:41;;;;;;;2.47;2.27;;;;;;;;;;4996262;28;20986;-78
2023/11/28 06:41:10;;;;;;;3.10;1.60;;;;;;;;;;5002732;28;20435;-79
2023/11/28 06:43:36;;;;;;;2.83;2.53;;;;;;;;;;5005483;28;20481;-78
2023/11/28 06:46:03;;;;;;;3.77;3.10;;;;;;;;;;4999366;28;20429;-79
2023/11/28 06:48:28;;;;;;;7.50;2.53;;;;;;;;;;4994038;28;20772;-79
2023/11/28 06:50:55;;;;;;;3.93;2.93;;;;;;;;;;4993896;28;20511;-80
2023/11/28 06:53:21;;;;;;;5.13;3.40;;;;;;;;;;5008730;28;20430;-79
2023/11/28 06:55:47;;;;;;;4.80;2.87;;;;;;;;;;4994002;28;20433;-79
2023/11/28 06:58:13;;;;;;;6.33;3.43;;;;;;;;;;4993946;28;20774;-80
2023/11/28 07:00:39;;;;;;;3.80;3.13;;;;;;;;;;5003863;28;20429;-80
2023/11/28 07:03:05;;;;;;;5.43;3.10;;;;;;;;;;5012979;28;20465;-78
2023/11/28 07:05:31;;;;;;;4.53;3.30;;;;;;;;;;5013250;28;20425;-79
2023/11/28 07:07:57;;;;;;;4.23;3.27;;;;;;;;;;5032473;28;20435;-79
2023/11/28 07:10:23;;;;;;;5.40;3.73;;;;;;;;;;5032655;28;20422;-80
2023/11/28 07:12:49;;;;;;;4.80;3.10;;;;;;;;;;5032908;28;20405;-79
2023/11/28 07:15:15;;;;;;;4.70;3.37;;;;;;;;;;5033147;28;20405;-79
2023/11/28 07:17:42;;;;;;;5.63;3.87;;;;;;;;;;5022369;28;20425;-80
2023/11/28 07:20:09;;;;;;;7.43;2.80;;;;;;;;;;5007996;28;20457;-82
2023/11/28 07:22:36;;;;;;;4.70;3.60;;;;;;;;;;4993355;28;20407;-81
2023/11/28 07:25:03;;;;;;;4.80;3.00;;;;;;;;;;4993364;28;20448;-81
2023/11/28 07:27:29;;;;;;;6.50;4.00;;;;;;;;;;4993617;28;20791;-79
2023/11/28 07:29:55;;;;;;;4.77;3.20;;;;;;;;;;4993354;28;20419;-81
2023/11/28 07:32:21;;;;;;;6.83;3.30;;;;;;;;;;4993588;28;20950;-81
2023/11/28 07:34:47;;;;;;;6.23;3.90;;;;;;;;;;4993517;28;20776;-80
2023/11/28 07:37:12;;;;;;;3.80;3.00;;;;;;;;;;4993600;28;20425;-82
2023/11/28 07:39:38;;;;;;;4.77;3.50;;;;;;;;;;4977141;28;20422;-82
2023/11/28 07:42:04;;;;;;;6.40;3.20;;;;;;;;;;5048128;28;20409;-81
2023/11/28 07:44:30;;;;;;;5.13;4.13;;;;;;;;;;5048058;28;20623;-81
2023/11/28 07:46:56;;;;;;;5.63;3.43;;;;;;;;;;5032861;28;20671;-79
2023/11/28 07:49:22;;;;;;;5.07;3.50;;;;;;;;;;5032760;28;20509;-79
2023/11/28 07:51:49;;;;;;;5.50;3.90;;;;;;;;;;5032781;28;20416;-80
2023/11/28 07:54:16;;;;;;;5.20;3.57;;;;;;;;;;5047648;28;20465;-81
2023/11/28 07:56:42;;;;;;;4.83;3.00;;;;;;;;;;5032853;28;20409;-80
2023/11/28 07:59:07;;;;;;;3.13;2.43;;;;;;;;;;5047980;28;20438;-80
2023/11/28 08:01:33;;;;;;;5.03;3.00;;;;;;;;;;5032670;28;20891;-80
2023/11/28 08:03:59;;;;;;;7.30;3.50;;;;;;;;;;5032442;28;20607;-81
2023/11/28 08:06:25;;;;;;;4.10;2.80;;;;;;;;;;5032567;28;20404;-81
2023/11/28 08:08:51;;;;;;;5.23;2.07;;;;;;;;;;5031947;28;20422;-80
2023/11/28 08:11:17;;;;;;;3.93;2.77;;;;;;;;;;5031368;28;20428;-81
2023/11/28 08:13:43;;;;;;;3.77;2.57;;;;;;;;;;5002195;28;20434;-80
2023/11/28 08:16:09;;;;;;;5.30;3.13;;;;;;;;;;5006452;28;20507;-80
2023/11/28 08:18:35;;;;;;;4.50;2.80;;;;;;;;;;4999260;28;20433;-79
2023/11/28 08:21:04;;;;;;;4.97;2.90;;;;;;;;;;5012799;28;20408;-80
2023/11/28 08:23:30;;;;;;;3.07;2.60;;;;;;;;;;5013858;28;20482;-80
2023/11/28 08:25:56;;;;;;;5.13;2.73;;;;;;;;;;5016285;28;20525;-80
2023/11/28 08:28:23;;;;;;;3.20;2.57;;;;;;;;;;5012619;28;20974;-81
2023/11/28 08:30:50;;;;;;;4.87;2.70;;;;;;;;;;4996392;28;20463;-81
2023/11/28 08:33:16;;;;;;;3.83;2.10;;;;;;;;;;5011581;28;20422;-80
2023/11/28 08:35:42;;;;;;;4.00;1.80;;;;;;;;;;4995322;28;20535;-81
2023/11/28 08:38:08;;;;;;;3.37;2.40;;;;;;;;;;4995064;28;20521;-81
2023/11/28 08:40:34;;;;;;;4.53;2.60;;;;;;;;;;4996460;28;20904;-81
2023/11/28 08:43:00;;;;;;;3.10;2.63;;;;;;;;;;4974321;28;20552;-81
2023/11/28 08:45:25;;;;;;;3.63;2.77;;;;;;;;;;5016026;28;20420;-82
2023/11/28 08:47:51;;;;;;;3.17;2.70;;;;;;;;;;5014674;28;20424;-82
2023/11/28 08:50:17;;;;;;;3.50;2.50;;;;;;;;;;5016010;28;20911;-81
2023/11/28 08:52:43;;;;;;;4.40;1.93;;;;;;;;;;5015367;28;20419;-82
2023/11/28 08:55:09;;;;;;;2.40;2.10;;;;;;;;;;5015907;28;20410;-81
2023/11/28 08:57:35;;;;;;;4.83;2.47;;;;;;;;;;5031048;28;20910;-81
2023/11/28 09:00:02;;;;;;;2.10;1.67;;;;;;;;;;5015803;28;20444;-82
2023/11/28 09:02:28;;;;;;;2.63;2.00;;;;;;;;;;5015693;28;20410;-82
2023/11/28 09:04:54;;;;;;;3.90;2.30;;;;;;;;;;5015604;28;20574;-81
2023/11/28 09:07:19;;;;;;;3.30;1.53;;;;;;;;;;5015836;28;20408;-82
2023/11/28 09:09:45;;;;;;;3.37;2.13;;;;;;;;;;5015267;28;20433;-81
2023/11/28 09:12:11;;;;;;;2.80;1.87;;;;;;;;;;5015643;28;20494;-80
2023/11/28 09:14:37;;;;;;;2.27;1.63;;;;;;;;;;5015533;28;20798;-81
2023/11/28 09:17:03;;;;;;;4.20;2.13;;;;;;;;;;5015529;28;20413;-81
2023/11/28 09:19:29;;;;;;;3.30;1.80;;;;;;;;;;5015424;28;20403;-80
2023/11/28 09:21:55;;;;;;;2.20;1.87;;;;;;;;;;5015326;28;20419;-81
2023/11/28 09:24:21;;;;;;;3.73;1.50;;;;;;;;;;5014881;28;20525;-81
2023/11/28 09:26:47;;;;;;;1.47;1.37;;;;;;;;;;5015327;28;20890;-79
2023/11/28 09:29:13;;;;;;;1.47;0.87;;;;;;;;;;5015252;28;20423;-80
2023/11/28 09:31:39;;;;;;;2.20;1.20;;;;;;;;;;5015024;28;20449;-80
2023/11/28 09:34:05;;;;;;;3.13;1.73;;;;;;;;;;5014465;28;20429;-81
2023/11/28 09:36:31;;;;;;;3.13;1.60;;;;;;;;;;5015951;28;20436;-82
2023/11/28 09:38:59;;;;;;;2.87;1.20;;;;;;;;;;5020838;28;20775;-80
2023/11/28 09:41:26;;;;;;;1.53;1.30;;;;;;;;;;4973059;28;21404;-79
2023/11/28 09:43:55;;;;;;;2.33;1.67;;;;;;;;;;5014145;28;20481;-79
2023/11/28 09:46:24;;;;;;;1.60;1.50;;;;;;;;;;5014554;28;20778;-80
2023/11/28 09:48:52;;;;;;;2.73;1.37;;;;;;;;;;5014728;28;21133;-80
2023/11/28 09:51:20;;;;;;;2.73;1.70;;;;;;;;;;5014511;28;20410;-80
2023/11/28 09:53:48;;;;;;;4.37;1.30;;;;;;;;;;5014148;28;20469;-80
2023/11/28 09:56:16;;;;;;;3.33;1.23;;;;;;;;;;5014537;28;20964;-80
2023/11/28 09:58:42;;;;;;;3.63;2.03;;;;;;;;;;5014769;28;20505;-80
2023/11/28 10:01:09;;;;;;;2.77;2.20;;;;;;;;;;5014760;28;20499;-80
2023/11/28 10:03:35;;;;;;;2.13;1.20;;;;;;;;;;5013270;28;20470;-80
2023/11/28 10:06:01;;;;;;;2.10;1.20;;;;;;;;;;5014510;28;20773;-80
2023/11/28 10:08:28;;;;;;;3.00;1.20;;;;;;;;;;5014175;28;20449;-80
2023/11/28 10:10:55;;;;;;;2.50;1.90;;;;;;;;;;5014573;28;20449;-80
2023/11/28 10:13:21;;;;;;;1.43;0.90;;;;;;;;;;5014736;28;20425;-80
2023/11/28 10:15:51;;;;;;;1.73;1.17;;;;;;;;;;5014208;28;20418;-80
2023/11/28 10:18:20;;;;;;;1.97;1.10;;;;;;;;;;5014088;28;20414;-80
2023/11/28 10:20:46;;;;;;;2.67;1.47;;;;;;;;;;5014285;28;20413;-80
2023/11/28 10:23:15;;;;;;;2.60;1.67;;;;;;;;;;5013836;28;20980;-80
2023/11/28 10:25:41;;;;;;;3.77;1.90;;;;;;;;;;5014118;28;20420;-81
2023/11/28 10:28:08;;;;;;;4.33;1.60;;;;;;;;;;5013992;28;20426;-80
2023/11/28 10:30:37;;;;;;;2.10;1.40;;;;;;;;;;5013814;28;20453;-81
2023/11/28 10:33:02;;;;;;;3.20;0.70;;;;;;;;;;5014166;28;20414;-81
2023/11/28 10:35:38;;;;;;;2.43;1.50;;;;;;;;;;5013963;28;20422;-81
2023/11/28 10:38:04;;;;;;;2.33;1.50;;;;;;;;;;5001747;28;20438;-81
2023/11/28 10:40:30;;;;;;;1.43;1.23;;;;;;;;;;5013871;28;20431;-81
2023/11/28 10:42:56;;;;;;;3.63;1.73;;;;;;;;;;4996924;28;20426;-81
2023/11/28 10:45:22;;;;;;;2.30;1.40;;;;;;;;;;4993536;28;20427;-81
2023/11/28 10:47:48;;;;;;;2.50;1.70;;;;;;;;;;5002910;28;20477;-81
2023/11/28 10:50:14;;;;;;;2.20;0.90;;;;;;;;;;5013730;28;20765;-81
2023/11/28 10:52:41;;;;;;;2.83;1.70;;;;;;;;;;5013336;28;20414;-81
2023/11/28 10:55:09;;;;;;;3.20;1.20;;;;;;;;;;5005933;28;20469;-81
2023/11/28 10:57:40;;;;;;;2.30;1.47;;;;;;;;;;5011732;28;20999;-81
2023/11/28 11:00:09;;;;;;;3.70;1.63;;;;;;;;;;5009169;28;20426;-81
2023/11/28 11:02:35;;;;;;;2.07;1.00;;;;;;;;;;4992718;28;20411;-81
2023/11/28 11:05:06;;;;;;;2.67;1.57;;;;;;;;;;4993840;28;20467;-80
2023/11/28 11:07:32;;;;;;;2.53;1.37;;;;;;;;;;4993611;28;20403;-80
2023/11/28 11:09:58;;;;;;;2.57;1.00;;;;;;;;;;5008570;28;20730;-81
2023/11/28 11:12:24;;;;;;;2.80;1.30;;;;;;;;;;5013563;28;20407;-81
2023/11/28 11:15:05;;;;;;;3.77;1.37;;;;;;;;;;5013369;28;20485;-81
2023/11/28 11:17:36;;;;;;;3.13;1.33;;;;;;;;;;5013403;28;20467;-81
2023/11/28 11:20:04;;;;;;;1.70;0.97;;;;;;;;;;5013439;28;20401;-80
2023/11/28 11:22:33;;;;;;;2.50;1.90;;;;;;;;;;5012940;28;20409;-81
2023/11/28 11:25:03;;;;;;;1.87;1.00;;;;;;;;;;5013181;28;20475;-81
2023/11/28 11:27:29;;;;;;;2.83;0.90;;;;;;;;;;5013339;28;20537;-81
2023/11/28 11:29:55;;;;;;;2.57;1.70;;;;;;;;;;5000397;28;21002;-81
2023/11/28 11:32:22;;;;;;;3.40;1.30;;;;;;;;;;5007627;28;20428;-81
2023/11/28 11:34:49;;;;;;;1.67;1.23;;;;;;;;;;5011861;28;20529;-81
2023/11/28 11:37:19;;;;;;;1.73;1.40;;;;;;;;;;5003206;28;20639;-80
2023/11/28 11:39:48;;;;;;;2.97;1.50;;;;;;;;;;5004004;28;20419;-80
2023/11/28 11:42:17;;;;;;;3.50;1.10;;;;;;;;;;5011420;28;20440;-80
2023/11/28 11:44:46;;;;;;;2.53;1.80;;;;;;;;;;5003746;28;20845;-80
2023/11/28 11:47:16;;;;;;;2.00;1.17;;;;;;;;;;4997128;28;20431;-80
2023/11/28 11:49:43;;;;;;;1.93;1.43;;;;;;;;;;4999279;28;20438;-80
2023/11/28 11:52:10;;;;;;;2.33;1.13;;;;;;;;;;5012747;28;20417;-80
2023/11/28 11:54:35;;;;;;;3.73;1.90;;;;;;;;;;5013048;28;20409;-80
2023/11/28 11:57:02;;;;;;;1.80;1.37;;;;;;;;;;5013747;28;20413;-80
2023/11/28 11:59:29;;;;;;;2.90;1.27;;;;;;;;;;5016928;28;20417;-80
2023/11/28 12:01:58;;;;;;;3.13;1.10;;;;;;;;;;4997426;28;20424;-80
2023/11/28 12:04:24;;;;;;;2.57;1.27;;;;;;;;;;4997119;28;20882;-80
2023/11/28 12:07:01;;;;;;;4.53;1.97;;;;;;;;;;4997216;28;20407;-80
2023/11/28 12:09:27;;;;;;;2.30;1.20;;;;;;;;;;4996879;28;20422;-80
2023/11/28 12:11:53;;;;;;;2.47;1.47;;;;;;;;;;4997122;28;20476;-80
2023/11/28 12:14:19;;;;;;;1.43;1.10;;;;;;;;;;4996980;28;20422;-81
2023/11/28 12:16:45;;;;;;;3.53;2.40;;;;;;;;;;4996834;28;20996;-81
2023/11/28 12:19:11;;;;;;;2.67;1.37;;;;;;;;;;4996882;28;20419;-82
2023/11/28 12:21:37;;;;;;;2.70;1.87;;;;;;;;;;4996793;28;20758;-81
2023/11/28 12:24:03;;;;;;;3.57;1.70;;;;;;;;;;4996380;28;20477;-81
2023/11/28 12:26:29;;;;;;;2.20;1.13;;;;;;;;;;5007555;28;20422;-81
2023/11/28 12:28:55;;;;;;;2.90;1.17;;;;;;;;;;4999120;28;20448;-81
2023/11/28 12:31:21;;;;;;;4.23;1.43;;;;;;;;;;5006500;28;20526;-81
2023/11/28 12:33:47;;;;;;;4.00;1.30;;;;;;;;;;5005240;28;20533;-81
2023/11/28 12:36:14;;;;;;;2.43;1.20;;;;;;;;;;5006762;28;20517;-81
2023/11/28 12:38:39;;;;;;;2.63;1.20;;;;;;;;;;4996733;28;20430;-81
2023/11/28 12:41:06;;;;;;;2.10;1.17;;;;;;;;;;5011618;28;20429;-81
2023/11/28 12:43:35;;;;;;;1.50;1.10;;;;;;;;;;4996389;28;20914;-81
2023/11/28 12:46:01;;;;;;;2.87;1.10;;;;;;;;;;4970674;28;20438;-81
2023/11/28 12:48:27;;;;;;;2.20;0.97;;;;;;;;;;5014729;28;20777;-81
2023/11/28 12:50:53;;;;;;;1.67;1.50;;;;;;;;;;5015941;28;20466;-82
2023/11/28 12:53:25;;;;;;;4.03;1.10;;;;;;;;;;5015501;28;20402;-82
2023/11/28 12:55:53;;;;;;;3.60;1.10;;;;;;;;;;5015800;28;20420;-81
2023/11/28 12:58:24;;;;;;;1.70;1.40;;;;;;;;;;5009352;28;20417;-82
2023/11/28 13:00:50;;;;;;;2.30;1.40;;;;;;;;;;5003106;28;20430;-81
2023/11/28 13:03:16;;;;;;;2.90;1.53;;;;;;;;;;5004602;28;20468;-82
2023/11/28 13:05:42;;;;;;;2.50;1.03;;;;;;;;;;5003791;28;20452;-81
2023/11/28 13:08:08;;;;;;;4.93;1.80;;;;;;;;;;5005308;28;20430;-81
2023/11/28 13:10:35;;;;;;;2.37;1.47;;;;;;;;;;5009972;28;20775;-81
2023/11/28 13:13:01;;;;;;;1.20;0.70;;;;;;;;;;4995655;28;20920;-81
2023/11/28 13:15:28;;;;;;;1.83;1.27;;;;;;;;;;4995534;28;20526;-81
2023/11/28 13:17:53;;;;;;;2.73;1.57;;;;;;;;;;4995533;28;20419;-81
2023/11/28 13:20:22;;;;;;;2.03;1.13;;;;;;;;;;4995323;28;20423;-81
2023/11/28 13:22:48;;;;;;;2.47;1.50;;;;;;;;;;4994858;28;20847;-81
2023/11/28 13:25:14;;;;;;;1.80;1.40;;;;;;;;;;5010485;28;20840;-81
2023/11/28 13:27:42;;;;;;;3.37;0.80;;;;;;;;;;5003516;28;20440;-81
2023/11/28 13:30:08;;;;;;;2.23;1.30;;;;;;;;;;5010527;28;20434;-81
2023/11/28 13:32:34;;;;;;;4.60;1.63;;;;;;;;;;4998208;28;20431;-81
2023/11/28 13:35:00;;;;;;;2.60;1.30;;;;;;;;;;5004370;28;20481;-81
2023/11/28 13:37:27;;;;;;;4.73;1.77;;;;;;;;;;5010338;28;20924;-81
2023/11/28 13:39:53;;;;;;;2.33;1.93;;;;;;;;;;5009954;28;20424;-81
2023/11/28 13:42:19;;;;;;;4.53;2.00;;;;;;;;;;5014729;28;20470;-82
2023/11/28 13:44:45;;;;;;;2.90;2.23;;;;;;;;;;5014671;28;20481;-81
2023/11/28 13:47:13;;;;;;;2.20;1.30;;;;;;;;;;4987008;28;20437;-81
2023/11/28 13:49:39;;;;;;;2.10;1.90;;;;;;;;;;5009750;28;20421;-81
2023/11/28 13:52:05;;;;;;;2.10;1.73;;;;;;;;;;5014389;28;20422;-81
2023/11/28 13:54:33;;;;;;;2.20;1.27;;;;;;;;;;5009790;28;20431;-81
2023/11/28 13:56:59;;;;;;;2.63;1.93;;;;;;;;;;5008629;28;20513;-81
2023/11/28 13:59:29;;;;;;;2.93;0.93;;;;;;;;;;5003811;28;20505;-81
2023/11/28 14:01:54;;;;;;;5.03;1.70;;;;;;;;;;5013200;28;21007;-81
2023/11/28 14:04:20;;;;;;;2.30;1.53;;;;;;;;;;5005095;28;20568;-81
2023/11/28 14:06:46;;;;;;;1.40;1.30;;;;;;;;;;4994215;28;20417;-81
2023/11/28 14:09:14;;;;;;;3.43;1.43;;;;;;;;;;4994518;28;20412;-81
2023/11/28 14:11:40;;;;;;;3.30;1.43;;;;;;;;;;4994492;28;20403;-81
2023/11/28 14:14:06;;;;;;;4.33;1.60;;;;;;;;;;4995217;28;20422;-81
2023/11/28 14:16:32;;;;;;;2.70;1.83;;;;;;;;;;5014406;28;20953;-81
2023/11/28 14:18:58;;;;;;;7.63;1.63;;;;;;;;;;5014234;28;20460;-80
2023/11/28 14:21:24;;;;;;;6.33;2.30;;;;;;;;;;5014138;28;20427;-81
2023/11/28 14:23:50;;;;;;;2.00;1.17;;;;;;;;;;5011259;28;20477;-81
2023/11/28 14:26:16;;;;;;;3.13;1.43;;;;;;;;;;5011799;28;20565;-81
2023/11/28 14:28:42;;;;;;;4.10;1.70;;;;;;;;;;4994831;28;20408;-81
2023/11/28 14:31:08;;;;;;;2.10;1.30;;;;;;;;;;5004143;28;20478;-81
2023/11/28 14:33:34;;;;;;;2.60;1.87;;;;;;;;;;5015953;28;20800;-80
2023/11/28 14:36:00;;;;;;;2.50;1.97;;;;;;;;;;5014970;28;20928;-80
2023/11/28 14:38:29;;;;;;;1.23;0.97;;;;;;;;;;5014570;28;20429;-80